sensor_id;sensor_type;location;lat;lon;timestamp;P1;durP1;ratioP1;P2;durP2;ratioP2
78686;SDS011;68002;52.310;6.990;2023-05-19T00:00:13;8.23;;;2.88;;
78686;SDS011;68002;52.310;6.990;2023-05-19T00:02:39;6.13;;;2.40;;
78686;SDS011;68002;52.310;6.990;2023-05-19T00:05:05;8.93;;;3.10;;
78686;SDS011;68002;52.310;6.990;2023-05-19T00:07:31;5.03;;;2.20;;
78686;SDS011;68002;52.310;6.990;2023-05-19T00:09:57;9.75;;;2.03;;
78686;SDS011;68002;52.310;6.990;2023-05-19T00:12:23;7.53;;;2.67;;
78686;SDS011;68002;52.310;6.990;2023-05-19T00:14:48;8.07;;;2.58;;
78686;SDS011;68002;52.310;6.990;2023-05-19T00:17:14;4.50;;;2.20;;
78686;SDS011;68002;52.310;6.990;2023-05-19T00:19:39;6.55;;;2.42;;
78686;SDS011;68002;52.310;6.990;2023-05-19T00:22:04;8.40;;;2.40;;
78686;SDS011;68002;52.310;6.990;2023-05-19T00:24:30;6.07;;;2.30;;
78686;SDS011;68002;52.310;6.990;2023-05-19T00:26:55;7.90;;;3.37;;
78686;SDS011;68002;52.310;6.990;2023-05-19T00:29:20;5.93;;;2.90;;
78686;SDS011;68002;52.310;6.990;2023-05-19T00:31:45;8.07;;;2.60;;
78686;SDS011;68002;52.310;6.990;2023-05-19T00:34:10;6.10;;;2.17;;
78686;SDS011;68002;52.310;6.990;2023-05-19T00:36:36;6.70;;;2.83;;
78686;SDS011;68002;52.310;6.990;2023-05-19T00:39:01;8.60;;;2.70;;
78686;SDS011;68002;52.310;6.990;2023-05-19T00:41:27;3.53;;;1.77;;
78686;SDS011;68002;52.310;6.990;2023-05-19T00:43:52;7.55;;;2.88;;
78686;SDS011;68002;52.310;6.990;2023-05-19T00:46:18;5.65;;;2.22;;
78686;SDS011;68002;52.310;6.990;2023-05-19T00:48:43;6.75;;;2.55;;
78686;SDS011;68002;52.310;6.990;2023-05-19T00:51:08;8.77;;;2.73;;
78686;SDS011;68002;52.310;6.990;2023-05-19T00:53:34;7.43;;;2.78;;
78686;SDS011;68002;52.310;6.990;2023-05-19T00:56:00;6.40;;;3.00;;
78686;SDS011;68002;52.310;6.990;2023-05-19T00:58:26;10.13;;;2.30;;
78686;SDS011;68002;52.310;6.990;2023-05-19T01:00:52;7.45;;;2.70;;
78686;SDS011;68002;52.310;6.990;2023-05-19T01:03:18;8.00;;;3.25;;
78686;SDS011;68002;52.310;6.990;2023-05-19T01:05:43;7.07;;;3.03;;
78686;SDS011;68002;52.310;6.990;2023-05-19T01:08:08;7.13;;;3.07;;
78686;SDS011;68002;52.310;6.990;2023-05-19T01:10:34;10.60;;;3.40;;
78686;SDS011;68002;52.310;6.990;2023-05-19T01:13:00;8.60;;;2.77;;
78686;SDS011;68002;52.310;6.990;2023-05-19T01:15:26;8.88;;;3.53;;
78686;SDS011;68002;52.310;6.990;2023-05-19T01:18:14;5.80;;;2.60;;
78686;SDS011;68002;52.310;6.990;2023-05-19T01:20:57;9.27;;;2.70;;
78686;SDS011;68002;52.310;6.990;2023-05-19T01:31:45;7.88;;;3.35;;
78686;SDS011;68002;52.310;6.990;2023-05-19T01:34:13;9.05;;;3.08;;
78686;SDS011;68002;52.310;6.990;2023-05-19T01:36:40;8.27;;;2.90;;
78686;SDS011;68002;52.310;6.990;2023-05-19T01:39:07;6.88;;;2.47;;
78686;SDS011;68002;52.310;6.990;2023-05-19T01:41:33;8.27;;;3.38;;
78686;SDS011;68002;52.310;6.990;2023-05-19T01:43:58;8.90;;;4.28;;
78686;SDS011;68002;52.310;6.990;2023-05-19T01:46:24;7.32;;;2.85;;
78686;SDS011;68002;52.310;6.990;2023-05-19T01:48:49;9.80;;;3.47;;
78686;SDS011;68002;52.310;6.990;2023-05-19T01:51:16;7.22;;;3.08;;
78686;SDS011;68002;52.310;6.990;2023-05-19T01:53:41;9.13;;;3.37;;
78686;SDS011;68002;52.310;6.990;2023-05-19T01:56:06;8.37;;;3.73;;
78686;SDS011;68002;52.310;6.990;2023-05-19T02:04:16;8.80;;;2.95;;
78686;SDS011;68002;52.310;6.990;2023-05-19T02:06:54;10.63;;;3.25;;
78686;SDS011;68002;52.310;6.990;2023-05-19T02:09:36;8.63;;;3.20;;
78686;SDS011;68002;52.310;6.990;2023-05-19T02:12:17;8.05;;;3.63;;
78686;SDS011;68002;52.310;6.990;2023-05-19T02:17:29;9.60;;;4.32;;
78686;SDS011;68002;52.310;6.990;2023-05-19T02:19:56;8.73;;;3.58;;
78686;SDS011;68002;52.310;6.990;2023-05-19T02:22:22;9.85;;;4.40;;
78686;SDS011;68002;52.310;6.990;2023-05-19T02:24:47;10.23;;;3.47;;
78686;SDS011;68002;52.310;6.990;2023-05-19T02:27:13;9.23;;;4.17;;
78686;SDS011;68002;52.310;6.990;2023-05-19T02:29:38;10.90;;;4.00;;
78686;SDS011;68002;52.310;6.990;2023-05-19T02:32:04;12.83;;;3.60;;
78686;SDS011;68002;52.310;6.990;2023-05-19T02:34:30;8.98;;;3.60;;
78686;SDS011;68002;52.310;6.990;2023-05-19T02:36:55;10.23;;;3.73;;
78686;SDS011;68002;52.310;6.990;2023-05-19T02:39:20;10.07;;;3.40;;
78686;SDS011;68002;52.310;6.990;2023-05-19T02:41:45;10.80;;;4.03;;
78686;SDS011;68002;52.310;6.990;2023-05-19T02:44:10;9.23;;;3.53;;
78686;SDS011;68002;52.310;6.990;2023-05-19T02:46:36;10.63;;;3.53;;
78686;SDS011;68002;52.310;6.990;2023-05-19T02:49:01;11.30;;;4.10;;
78686;SDS011;68002;52.310;6.990;2023-05-19T02:51:26;10.47;;;3.30;;
78686;SDS011;68002;52.310;6.990;2023-05-19T02:53:51;9.30;;;3.70;;
78686;SDS011;68002;52.310;6.990;2023-05-19T02:56:16;8.83;;;3.40;;
78686;SDS011;68002;52.310;6.990;2023-05-19T02:58:42;9.00;;;3.50;;
78686;SDS011;68002;52.310;6.990;2023-05-19T03:01:07;9.10;;;3.60;;
78686;SDS011;68002;52.310;6.990;2023-05-19T03:03:33;9.27;;;3.85;;
78686;SDS011;68002;52.310;6.990;2023-05-19T03:05:58;9.80;;;3.83;;
78686;SDS011;68002;52.310;6.990;2023-05-19T03:08:24;13.87;;;4.07;;
78686;SDS011;68002;52.310;6.990;2023-05-19T03:10:49;10.82;;;4.53;;
78686;SDS011;68002;52.310;6.990;2023-05-19T03:13:14;12.30;;;4.87;;
78686;SDS011;68002;52.310;6.990;2023-05-19T03:15:40;10.37;;;5.03;;
78686;SDS011;68002;52.310;6.990;2023-05-19T03:18:05;9.90;;;3.93;;
78686;SDS011;68002;52.310;6.990;2023-05-19T03:20:30;12.93;;;4.35;;
78686;SDS011;68002;52.310;6.990;2023-05-19T03:22:56;10.50;;;4.20;;
78686;SDS011;68002;52.310;6.990;2023-05-19T03:25:21;10.57;;;3.70;;
78686;SDS011;68002;52.310;6.990;2023-05-19T03:27:47;10.47;;;3.70;;
78686;SDS011;68002;52.310;6.990;2023-05-19T03:30:12;10.93;;;4.43;;
78686;SDS011;68002;52.310;6.990;2023-05-19T03:32:38;13.50;;;5.00;;
78686;SDS011;68002;52.310;6.990;2023-05-19T03:35:03;10.63;;;4.30;;
78686;SDS011;68002;52.310;6.990;2023-05-19T03:37:29;13.10;;;4.60;;
78686;SDS011;68002;52.310;6.990;2023-05-19T03:39:54;13.63;;;4.87;;
78686;SDS011;68002;52.310;6.990;2023-05-19T03:42:19;7.90;;;3.50;;
78686;SDS011;68002;52.310;6.990;2023-05-19T03:44:44;11.67;;;4.00;;
78686;SDS011;68002;52.310;6.990;2023-05-19T03:47:09;10.53;;;3.83;;
78686;SDS011;68002;52.310;6.990;2023-05-19T03:49:35;12.80;;;4.07;;
78686;SDS011;68002;52.310;6.990;2023-05-19T03:52:00;9.13;;;4.10;;
78686;SDS011;68002;52.310;6.990;2023-05-19T03:54:25;11.77;;;4.93;;
78686;SDS011;68002;52.310;6.990;2023-05-19T03:56:50;12.93;;;4.93;;
78686;SDS011;68002;52.310;6.990;2023-05-19T03:59:15;10.70;;;3.90;;
78686;SDS011;68002;52.310;6.990;2023-05-19T04:01:41;13.07;;;5.13;;
78686;SDS011;68002;52.310;6.990;2023-05-19T04:04:06;10.90;;;4.17;;
78686;SDS011;68002;52.310;6.990;2023-05-19T04:06:31;12.50;;;3.92;;
78686;SDS011;68002;52.310;6.990;2023-05-19T04:08:57;13.35;;;4.43;;
78686;SDS011;68002;52.310;6.990;2023-05-19T04:11:22;13.90;;;4.73;;
78686;SDS011;68002;52.310;6.990;2023-05-19T04:13:47;9.70;;;4.13;;
78686;SDS011;68002;52.310;6.990;2023-05-19T04:16:13;13.33;;;4.50;;
78686;SDS011;68002;52.310;6.990;2023-05-19T04:18:38;10.82;;;4.18;;
78686;SDS011;68002;52.310;6.990;2023-05-19T04:21:03;13.43;;;5.40;;
78686;SDS011;68002;52.310;6.990;2023-05-19T04:23:29;12.47;;;4.53;;
78686;SDS011;68002;52.310;6.990;2023-05-19T04:25:54;10.80;;;4.50;;
78686;SDS011;68002;52.310;6.990;2023-05-19T04:28:19;11.63;;;5.10;;
78686;SDS011;68002;52.310;6.990;2023-05-19T04:30:44;12.97;;;4.87;;
78686;SDS011;68002;52.310;6.990;2023-05-19T04:33:10;9.40;;;4.73;;
78686;SDS011;68002;52.310;6.990;2023-05-19T04:35:35;10.13;;;4.87;;
78686;SDS011;68002;52.310;6.990;2023-05-19T04:38:00;8.13;;;3.87;;
78686;SDS011;68002;52.310;6.990;2023-05-19T04:40:26;10.13;;;4.07;;
78686;SDS011;68002;52.310;6.990;2023-05-19T04:42:51;13.35;;;6.07;;
78686;SDS011;68002;52.310;6.990;2023-05-19T04:45:16;5.97;;;2.30;;
78686;SDS011;68002;52.310;6.990;2023-05-19T04:47:42;11.35;;;5.43;;
78686;SDS011;68002;52.310;6.990;2023-05-19T04:50:07;10.40;;;5.00;;
78686;SDS011;68002;52.310;6.990;2023-05-19T04:52:33;10.48;;;4.82;;
78686;SDS011;68002;52.310;6.990;2023-05-19T04:54:58;9.63;;;4.80;;
78686;SDS011;68002;52.310;6.990;2023-05-19T04:57:23;13.60;;;4.83;;
78686;SDS011;68002;52.310;6.990;2023-05-19T04:59:48;9.87;;;4.37;;
78686;SDS011;68002;52.310;6.990;2023-05-19T05:02:14;12.30;;;5.00;;
78686;SDS011;68002;52.310;6.990;2023-05-19T05:04:39;12.63;;;5.45;;
78686;SDS011;68002;52.310;6.990;2023-05-19T05:07:04;10.67;;;5.00;;
78686;SDS011;68002;52.310;6.990;2023-05-19T05:09:30;10.70;;;4.83;;
78686;SDS011;68002;52.310;6.990;2023-05-19T05:11:55;12.93;;;5.77;;
78686;SDS011;68002;52.310;6.990;2023-05-19T05:14:21;12.55;;;5.32;;
78686;SDS011;68002;52.310;6.990;2023-05-19T05:16:46;10.65;;;5.65;;
78686;SDS011;68002;52.310;6.990;2023-05-19T05:19:12;11.43;;;4.75;;
78686;SDS011;68002;52.310;6.990;2023-05-19T05:21:37;14.02;;;6.15;;
78686;SDS011;68002;52.310;6.990;2023-05-19T05:24:03;7.10;;;4.15;;
78686;SDS011;68002;52.310;6.990;2023-05-19T05:26:29;10.52;;;6.32;;
78686;SDS011;68002;52.310;6.990;2023-05-19T05:28:57;9.70;;;4.95;;
78686;SDS011;68002;52.310;6.990;2023-05-19T05:31:22;9.63;;;4.20;;
78686;SDS011;68002;52.310;6.990;2023-05-19T05:33:47;10.53;;;5.37;;
78686;SDS011;68002;52.310;6.990;2023-05-19T05:36:12;9.83;;;5.50;;
78686;SDS011;68002;52.310;6.990;2023-05-19T05:38:37;11.57;;;4.97;;
78686;SDS011;68002;52.310;6.990;2023-05-19T05:41:03;9.97;;;5.07;;
78686;SDS011;68002;52.310;6.990;2023-05-19T05:43:28;9.30;;;4.75;;
78686;SDS011;68002;52.310;6.990;2023-05-19T05:45:54;8.90;;;4.28;;
78686;SDS011;68002;52.310;6.990;2023-05-19T05:48:20;8.77;;;5.03;;
78686;SDS011;68002;52.310;6.990;2023-05-19T05:50:45;9.48;;;4.32;;
78686;SDS011;68002;52.310;6.990;2023-05-19T05:53:14;9.85;;;4.25;;
78686;SDS011;68002;52.310;6.990;2023-05-19T05:55:42;10.85;;;4.35;;
78686;SDS011;68002;52.310;6.990;2023-05-19T05:58:08;8.15;;;4.63;;
78686;SDS011;68002;52.310;6.990;2023-05-19T06:00:33;7.13;;;3.63;;
78686;SDS011;68002;52.310;6.990;2023-05-19T06:02:59;7.37;;;4.90;;
78686;SDS011;68002;52.310;6.990;2023-05-19T06:05:24;10.17;;;4.43;;
78686;SDS011;68002;52.310;6.990;2023-05-19T06:07:49;6.17;;;4.00;;
78686;SDS011;68002;52.310;6.990;2023-05-19T06:10:14;9.57;;;4.20;;
78686;SDS011;68002;52.310;6.990;2023-05-19T06:12:39;7.07;;;4.07;;
78686;SDS011;68002;52.310;6.990;2023-05-19T06:15:05;8.07;;;4.87;;
78686;SDS011;68002;52.310;6.990;2023-05-19T06:17:31;8.57;;;3.50;;
78686;SDS011;68002;52.310;6.990;2023-05-19T06:19:56;8.87;;;4.13;;
78686;SDS011;68002;52.310;6.990;2023-05-19T06:22:22;7.00;;;3.73;;
78686;SDS011;68002;52.310;6.990;2023-05-19T06:24:47;9.20;;;4.10;;
78686;SDS011;68002;52.310;6.990;2023-05-19T06:27:12;8.50;;;3.67;;
78686;SDS011;68002;52.310;6.990;2023-05-19T06:29:37;6.70;;;4.17;;
78686;SDS011;68002;52.310;6.990;2023-05-19T06:32:03;8.03;;;3.87;;
78686;SDS011;68002;52.310;6.990;2023-05-19T06:34:28;10.65;;;4.63;;
78686;SDS011;68002;52.310;6.990;2023-05-19T06:36:53;9.07;;;4.10;;
78686;SDS011;68002;52.310;6.990;2023-05-19T06:39:18;7.43;;;4.33;;
78686;SDS011;68002;52.310;6.990;2023-05-19T06:41:44;6.50;;;3.40;;
78686;SDS011;68002;52.310;6.990;2023-05-19T06:44:09;7.67;;;3.83;;
78686;SDS011;68002;52.310;6.990;2023-05-19T06:46:34;6.73;;;3.03;;
78686;SDS011;68002;52.310;6.990;2023-05-19T06:49:00;7.80;;;2.70;;
78686;SDS011;68002;52.310;6.990;2023-05-19T06:51:25;5.22;;;3.30;;
78686;SDS011;68002;52.310;6.990;2023-05-19T06:53:50;6.77;;;3.40;;
78686;SDS011;68002;52.310;6.990;2023-05-19T06:56:16;8.07;;;3.93;;
78686;SDS011;68002;52.310;6.990;2023-05-19T06:58:41;7.73;;;3.77;;
78686;SDS011;68002;52.310;6.990;2023-05-19T07:01:06;7.27;;;3.23;;
78686;SDS011;68002;52.310;6.990;2023-05-19T07:03:31;5.03;;;3.40;;
78686;SDS011;68002;52.310;6.990;2023-05-19T07:05:57;7.50;;;4.00;;
78686;SDS011;68002;52.310;6.990;2023-05-19T07:08:22;7.37;;;3.43;;
78686;SDS011;68002;52.310;6.990;2023-05-19T07:10:47;7.60;;;3.73;;
78686;SDS011;68002;52.310;6.990;2023-05-19T07:13:12;6.43;;;3.57;;
78686;SDS011;68002;52.310;6.990;2023-05-19T07:15:37;5.10;;;2.93;;
78686;SDS011;68002;52.310;6.990;2023-05-19T07:18:03;5.83;;;3.93;;
78686;SDS011;68002;52.310;6.990;2023-05-19T07:20:28;5.30;;;3.30;;
78686;SDS011;68002;52.310;6.990;2023-05-19T07:22:53;5.83;;;3.30;;
78686;SDS011;68002;52.310;6.990;2023-05-19T07:25:18;7.93;;;3.93;;
78686;SDS011;68002;52.310;6.990;2023-05-19T07:27:44;8.03;;;3.40;;
78686;SDS011;68002;52.310;6.990;2023-05-19T07:30:09;6.40;;;3.63;;
78686;SDS011;68002;52.310;6.990;2023-05-19T07:32:35;6.13;;;3.97;;
78686;SDS011;68002;52.310;6.990;2023-05-19T07:35:00;7.90;;;3.40;;
78686;SDS011;68002;52.310;6.990;2023-05-19T07:37:25;6.87;;;3.53;;
78686;SDS011;68002;52.310;6.990;2023-05-19T07:39:50;5.37;;;3.57;;
78686;SDS011;68002;52.310;6.990;2023-05-19T07:42:16;5.13;;;2.87;;
78686;SDS011;68002;52.310;6.990;2023-05-19T07:44:41;8.43;;;3.80;;
78686;SDS011;68002;52.310;6.990;2023-05-19T07:47:06;5.50;;;3.33;;
78686;SDS011;68002;52.310;6.990;2023-05-19T07:49:31;5.83;;;3.07;;
78686;SDS011;68002;52.310;6.990;2023-05-19T07:51:56;5.27;;;2.20;;
78686;SDS011;68002;52.310;6.990;2023-05-19T07:54:22;6.10;;;3.10;;
78686;SDS011;68002;52.310;6.990;2023-05-19T07:56:47;6.53;;;2.93;;
78686;SDS011;68002;52.310;6.990;2023-05-19T07:59:13;5.00;;;2.77;;
78686;SDS011;68002;52.310;6.990;2023-05-19T08:01:38;7.45;;;2.85;;
78686;SDS011;68002;52.310;6.990;2023-05-19T08:04:04;5.53;;;3.37;;
78686;SDS011;68002;52.310;6.990;2023-05-19T08:06:29;6.85;;;2.90;;
78686;SDS011;68002;52.310;6.990;2023-05-19T08:08:54;6.67;;;3.50;;
78686;SDS011;68002;52.310;6.990;2023-05-19T08:11:20;5.07;;;2.50;;
78686;SDS011;68002;52.310;6.990;2023-05-19T08:13:45;6.20;;;2.15;;
78686;SDS011;68002;52.310;6.990;2023-05-19T08:16:10;7.30;;;2.57;;
78686;SDS011;68002;52.310;6.990;2023-05-19T08:18:35;5.73;;;2.33;;
78686;SDS011;68002;52.310;6.990;2023-05-19T08:21:01;6.70;;;1.77;;
78686;SDS011;68002;52.310;6.990;2023-05-19T08:23:26;5.43;;;1.90;;
78686;SDS011;68002;52.310;6.990;2023-05-19T08:25:51;6.63;;;2.30;;
78686;SDS011;68002;52.310;6.990;2023-05-19T08:28:16;4.57;;;1.73;;
78686;SDS011;68002;52.310;6.990;2023-05-19T08:30:42;4.67;;;1.73;;
78686;SDS011;68002;52.310;6.990;2023-05-19T08:33:07;4.70;;;1.90;;
78686;SDS011;68002;52.310;6.990;2023-05-19T08:35:32;5.20;;;2.50;;
78686;SDS011;68002;52.310;6.990;2023-05-19T08:37:58;4.57;;;2.53;;
78686;SDS011;68002;52.310;6.990;2023-05-19T08:40:23;4.33;;;1.97;;
78686;SDS011;68002;52.310;6.990;2023-05-19T08:42:49;7.28;;;2.25;;
78686;SDS011;68002;52.310;6.990;2023-05-19T08:45:14;4.47;;;2.13;;
78686;SDS011;68002;52.310;6.990;2023-05-19T08:47:40;4.70;;;1.80;;
78686;SDS011;68002;52.310;6.990;2023-05-19T08:50:06;5.80;;;1.58;;
78686;SDS011;68002;52.310;6.990;2023-05-19T08:57:57;4.78;;;1.73;;
78686;SDS011;68002;52.310;6.990;2023-05-19T09:00:25;5.05;;;1.60;;
78686;SDS011;68002;52.310;6.990;2023-05-19T09:02:51;5.65;;;1.98;;
78686;SDS011;68002;52.310;6.990;2023-05-19T09:05:17;3.38;;;1.60;;
78686;SDS011;68002;52.310;6.990;2023-05-19T09:07:43;3.05;;;1.50;;
78686;SDS011;68002;52.310;6.990;2023-05-19T09:10:09;3.17;;;1.10;;
78686;SDS011;68002;52.310;6.990;2023-05-19T09:12:34;4.32;;;1.50;;
78686;SDS011;68002;52.310;6.990;2023-05-19T09:14:59;3.43;;;1.20;;
78686;SDS011;68002;52.310;6.990;2023-05-19T09:17:25;6.00;;;1.55;;
78686;SDS011;68002;52.310;6.990;2023-05-19T09:19:50;5.00;;;1.77;;
78686;SDS011;68002;52.310;6.990;2023-05-19T09:22:16;3.83;;;1.25;;
78686;SDS011;68002;52.310;6.990;2023-05-19T09:24:41;4.03;;;1.20;;
78686;SDS011;68002;52.310;6.990;2023-05-19T09:27:07;6.82;;;2.13;;
78686;SDS011;68002;52.310;6.990;2023-05-19T09:29:32;4.37;;;2.17;;
78686;SDS011;68002;52.310;6.990;2023-05-19T09:31:57;4.60;;;1.40;;
78686;SDS011;68002;52.310;6.990;2023-05-19T09:34:23;5.50;;;1.30;;
78686;SDS011;68002;52.310;6.990;2023-05-19T09:36:48;5.63;;;1.37;;
78686;SDS011;68002;52.310;6.990;2023-05-19T09:39:17;3.83;;;1.38;;
78686;SDS011;68002;52.310;6.990;2023-05-19T09:41:43;3.92;;;1.73;;
78686;SDS011;68002;52.310;6.990;2023-05-19T09:44:12;5.43;;;1.25;;
78686;SDS011;68002;52.310;6.990;2023-05-19T09:46:47;4.00;;;1.50;;
78686;SDS011;68002;52.310;6.990;2023-05-19T09:49:20;5.68;;;1.50;;
78686;SDS011;68002;52.310;6.990;2023-05-19T09:51:49;5.47;;;1.23;;
78686;SDS011;68002;52.310;6.990;2023-05-19T09:54:15;5.93;;;1.45;;
78686;SDS011;68002;52.310;6.990;2023-05-19T09:56:40;2.72;;;1.38;;
78686;SDS011;68002;52.310;6.990;2023-05-19T09:59:06;6.13;;;1.53;;
78686;SDS011;68002;52.310;6.990;2023-05-19T10:01:31;5.73;;;1.20;;
78686;SDS011;68002;52.310;6.990;2023-05-19T10:03:57;5.40;;;1.77;;
78686;SDS011;68002;52.310;6.990;2023-05-19T10:06:22;5.20;;;1.30;;
78686;SDS011;68002;52.310;6.990;2023-05-19T10:08:49;6.20;;;1.73;;
78686;SDS011;68002;52.310;6.990;2023-05-19T10:11:16;4.32;;;1.48;;
78686;SDS011;68002;52.310;6.990;2023-05-19T10:13:41;3.60;;;1.40;;
78686;SDS011;68002;52.310;6.990;2023-05-19T10:16:09;3.70;;;1.35;;
78686;SDS011;68002;52.310;6.990;2023-05-19T10:18:35;4.18;;;1.10;;
78686;SDS011;68002;52.310;6.990;2023-05-19T10:21:01;2.85;;;1.08;;
78686;SDS011;68002;52.310;6.990;2023-05-19T10:23:27;5.22;;;1.40;;
78686;SDS011;68002;52.310;6.990;2023-05-19T10:25:53;2.83;;;1.27;;
78686;SDS011;68002;52.310;6.990;2023-05-19T10:28:22;4.45;;;1.08;;
78686;SDS011;68002;52.310;6.990;2023-05-19T10:30:52;6.38;;;1.58;;
78686;SDS011;68002;52.310;6.990;2023-05-19T10:33:20;3.20;;;1.35;;
78686;SDS011;68002;52.310;6.990;2023-05-19T10:36:13;3.88;;;1.10;;
78686;SDS011;68002;52.310;6.990;2023-05-19T10:46:47;3.20;;;1.10;;
78686;SDS011;68002;52.310;6.990;2023-05-19T10:49:19;4.03;;;1.33;;
78686;SDS011;68002;52.310;6.990;2023-05-19T10:51:44;3.42;;;1.27;;
78686;SDS011;68002;52.310;6.990;2023-05-19T10:54:09;4.57;;;1.40;;
78686;SDS011;68002;52.310;6.990;2023-05-19T10:56:37;4.07;;;1.43;;
78686;SDS011;68002;52.310;6.990;2023-05-19T10:59:03;3.63;;;1.30;;
78686;SDS011;68002;52.310;6.990;2023-05-19T11:01:29;6.33;;;1.90;;
78686;SDS011;68002;52.310;6.990;2023-05-19T11:04:05;8.75;;;2.00;;
78686;SDS011;68002;52.310;6.990;2023-05-19T11:06:32;3.53;;;0.98;;
78686;SDS011;68002;52.310;6.990;2023-05-19T11:08:59;4.78;;;1.58;;
78686;SDS011;68002;52.310;6.990;2023-05-19T11:11:51;5.35;;;1.50;;
78686;SDS011;68002;52.310;6.990;2023-05-19T11:14:21;3.63;;;1.48;;
78686;SDS011;68002;52.310;6.990;2023-05-19T11:16:56;2.80;;;1.27;;
78686;SDS011;68002;52.310;6.990;2023-05-19T11:19:29;4.82;;;1.50;;
78686;SDS011;68002;52.310;6.990;2023-05-19T11:21:56;2.15;;;1.10;;
78686;SDS011;68002;52.310;6.990;2023-05-19T11:27:18;3.17;;;1.52;;
78686;SDS011;68002;52.310;6.990;2023-05-19T11:29:50;4.65;;;1.63;;
78686;SDS011;68002;52.310;6.990;2023-05-19T11:32:16;5.65;;;1.83;;
78686;SDS011;68002;52.310;6.990;2023-05-19T11:34:42;5.32;;;1.65;;
78686;SDS011;68002;52.310;6.990;2023-05-19T11:37:08;6.22;;;1.48;;
78686;SDS011;68002;52.310;6.990;2023-05-19T11:39:35;3.35;;;1.15;;
78686;SDS011;68002;52.310;6.990;2023-05-19T11:42:00;3.80;;;1.70;;
78686;SDS011;68002;52.310;6.990;2023-05-19T11:44:26;4.93;;;2.00;;
78686;SDS011;68002;52.310;6.990;2023-05-19T11:46:51;4.53;;;1.90;;
78686;SDS011;68002;52.310;6.990;2023-05-19T11:49:17;4.65;;;1.92;;
78686;SDS011;68002;52.310;6.990;2023-05-19T11:51:42;3.60;;;2.10;;
78686;SDS011;68002;52.310;6.990;2023-05-19T11:54:11;4.00;;;1.70;;
78686;SDS011;68002;52.310;6.990;2023-05-19T11:56:40;3.85;;;1.50;;
78686;SDS011;68002;52.310;6.990;2023-05-19T11:59:07;3.17;;;1.20;;
78686;SDS011;68002;52.310;6.990;2023-05-19T12:01:33;5.10;;;2.10;;
78686;SDS011;68002;52.310;6.990;2023-05-19T12:03:58;3.90;;;1.60;;
78686;SDS011;68002;52.310;6.990;2023-05-19T12:06:24;6.20;;;1.98;;
78686;SDS011;68002;52.310;6.990;2023-05-19T12:08:50;3.10;;;1.52;;
78686;SDS011;68002;52.310;6.990;2023-05-19T12:11:17;3.13;;;1.33;;
78686;SDS011;68002;52.310;6.990;2023-05-19T12:13:43;4.63;;;2.00;;
78686;SDS011;68002;52.310;6.990;2023-05-19T12:16:08;4.05;;;1.58;;
78686;SDS011;68002;52.310;6.990;2023-05-19T12:18:36;3.53;;;1.43;;
78686;SDS011;68002;52.310;6.990;2023-05-19T12:21:02;3.53;;;1.80;;
78686;SDS011;68002;52.310;6.990;2023-05-19T12:23:27;3.17;;;1.17;;
78686;SDS011;68002;52.310;6.990;2023-05-19T12:25:53;4.40;;;1.52;;
78686;SDS011;68002;52.310;6.990;2023-05-19T12:28:18;2.27;;;1.27;;
78686;SDS011;68002;52.310;6.990;2023-05-19T12:30:46;3.13;;;1.30;;
78686;SDS011;68002;52.310;6.990;2023-05-19T12:33:13;3.05;;;1.10;;
78686;SDS011;68002;52.310;6.990;2023-05-19T12:35:39;2.88;;;1.20;;
78686;SDS011;68002;52.310;6.990;2023-05-19T12:38:06;3.60;;;1.45;;
78686;SDS011;68002;52.310;6.990;2023-05-19T12:40:35;3.88;;;1.63;;
78686;SDS011;68002;52.310;6.990;2023-05-19T12:43:00;4.68;;;1.35;;
78686;SDS011;68002;52.310;6.990;2023-05-19T12:45:26;3.92;;;1.30;;
78686;SDS011;68002;52.310;6.990;2023-05-19T12:47:51;3.40;;;1.00;;
78686;SDS011;68002;52.310;6.990;2023-05-19T12:50:16;3.13;;;1.10;;
78686;SDS011;68002;52.310;6.990;2023-05-19T12:52:44;4.35;;;1.20;;
78686;SDS011;68002;52.310;6.990;2023-05-19T12:55:11;4.53;;;1.33;;
78686;SDS011;68002;52.310;6.990;2023-05-19T12:57:37;6.28;;;1.20;;
78686;SDS011;68002;52.310;6.990;2023-05-19T13:02:34;5.00;;;1.45;;
78686;SDS011;68002;52.310;6.990;2023-05-19T13:05:00;4.53;;;1.38;;
78686;SDS011;68002;52.310;6.990;2023-05-19T13:07:25;3.45;;;1.10;;
78686;SDS011;68002;52.310;6.990;2023-05-19T13:09:51;3.22;;;0.95;;
78686;SDS011;68002;52.310;6.990;2023-05-19T13:12:16;2.97;;;0.80;;
78686;SDS011;68002;52.310;6.990;2023-05-19T13:14:42;4.97;;;0.90;;
78686;SDS011;68002;52.310;6.990;2023-05-19T13:17:07;5.00;;;1.20;;
78686;SDS011;68002;52.310;6.990;2023-05-19T13:19:32;1.90;;;0.80;;
78686;SDS011;68002;52.310;6.990;2023-05-19T13:21:57;4.53;;;1.40;;
78686;SDS011;68002;52.310;6.990;2023-05-19T13:24:23;3.67;;;1.20;;
78686;SDS011;68002;52.310;6.990;2023-05-19T13:26:48;5.10;;;1.70;;
78686;SDS011;68002;52.310;6.990;2023-05-19T13:29:13;3.37;;;1.30;;
78686;SDS011;68002;52.310;6.990;2023-05-19T13:31:38;3.10;;;1.00;;
78686;SDS011;68002;52.310;6.990;2023-05-19T13:34:04;5.70;;;1.20;;
78686;SDS011;68002;52.310;6.990;2023-05-19T13:36:29;4.03;;;1.27;;
78686;SDS011;68002;52.310;6.990;2023-05-19T13:38:54;4.17;;;1.37;;
78686;SDS011;68002;52.310;6.990;2023-05-19T13:41:23;3.27;;;1.30;;
78686;SDS011;68002;52.310;6.990;2023-05-19T13:46:14;3.57;;;1.10;;
78686;SDS011;68002;52.310;6.990;2023-05-19T13:48:39;3.20;;;0.90;;
78686;SDS011;68002;52.310;6.990;2023-05-19T13:51:04;2.43;;;1.20;;
78686;SDS011;68002;52.310;6.990;2023-05-19T13:53:29;4.50;;;1.47;;
78686;SDS011;68002;52.310;6.990;2023-05-19T13:55:54;3.27;;;1.20;;
78686;SDS011;68002;52.310;6.990;2023-05-19T13:58:20;3.13;;;1.47;;
78686;SDS011;68002;52.310;6.990;2023-05-19T14:00:45;3.87;;;1.07;;
78686;SDS011;68002;52.310;6.990;2023-05-19T14:03:10;4.17;;;1.37;;
78686;SDS011;68002;52.310;6.990;2023-05-19T14:05:35;5.47;;;1.50;;
78686;SDS011;68002;52.310;6.990;2023-05-19T14:08:01;3.27;;;1.30;;
78686;SDS011;68002;52.310;6.990;2023-05-19T14:10:26;2.87;;;1.20;;
78686;SDS011;68002;52.310;6.990;2023-05-19T14:12:51;4.40;;;1.50;;
78686;SDS011;68002;52.310;6.990;2023-05-19T14:15:16;4.15;;;1.15;;
78686;SDS011;68002;52.310;6.990;2023-05-19T14:17:42;4.77;;;1.40;;
78686;SDS011;68002;52.310;6.990;2023-05-19T14:20:07;3.43;;;1.20;;
78686;SDS011;68002;52.310;6.990;2023-05-19T14:22:32;4.72;;;0.90;;
78686;SDS011;68002;52.310;6.990;2023-05-19T14:24:58;5.50;;;1.10;;
78686;SDS011;68002;52.310;6.990;2023-05-19T14:27:23;3.30;;;0.90;;
78686;SDS011;68002;52.310;6.990;2023-05-19T14:29:48;4.53;;;1.43;;
78686;SDS011;68002;52.310;6.990;2023-05-19T14:32:13;3.57;;;1.30;;
78686;SDS011;68002;52.310;6.990;2023-05-19T14:34:39;4.83;;;1.70;;
78686;SDS011;68002;52.310;6.990;2023-05-19T14:37:04;3.03;;;1.37;;
78686;SDS011;68002;52.310;6.990;2023-05-19T14:39:29;3.27;;;1.10;;
78686;SDS011;68002;52.310;6.990;2023-05-19T14:41:54;4.80;;;1.38;;
78686;SDS011;68002;52.310;6.990;2023-05-19T14:44:20;3.63;;;1.20;;
78686;SDS011;68002;52.310;6.990;2023-05-19T14:46:45;2.00;;;0.73;;
78686;SDS011;68002;52.310;6.990;2023-05-19T14:49:10;3.87;;;1.27;;
78686;SDS011;68002;52.310;6.990;2023-05-19T14:51:35;3.13;;;1.10;;
78686;SDS011;68002;52.310;6.990;2023-05-19T14:54:00;3.33;;;1.37;;
78686;SDS011;68002;52.310;6.990;2023-05-19T14:56:26;3.20;;;1.63;;
78686;SDS011;68002;52.310;6.990;2023-05-19T14:58:51;2.43;;;1.30;;
78686;SDS011;68002;52.310;6.990;2023-05-19T15:01:16;3.07;;;1.20;;
78686;SDS011;68002;52.310;6.990;2023-05-19T15:03:41;3.17;;;0.97;;
78686;SDS011;68002;52.310;6.990;2023-05-19T15:06:07;3.40;;;1.40;;
78686;SDS011;68002;52.310;6.990;2023-05-19T15:08:33;3.28;;;1.40;;
78686;SDS011;68002;52.310;6.990;2023-05-19T15:10:58;3.10;;;1.20;;
78686;SDS011;68002;52.310;6.990;2023-05-19T15:13:24;3.97;;;1.20;;
78686;SDS011;68002;52.310;6.990;2023-05-19T15:15:52;5.93;;;1.13;;